createdAt,value
2016-12-08T00:02:53.810Z,0
2016-12-08T00:07:50.451Z,0
2016-12-08T00:12:47.344Z,0
2016-12-08T00:17:43.949Z,0
2016-12-08T00:22:40.708Z,0
2016-12-08T00:27:37.391Z,0
2016-12-08T00:32:33.965Z,0
2016-12-08T00:37:30.681Z,0
2016-12-08T00:42:27.441Z,0
2016-12-08T00:47:24.240Z,0
2016-12-08T00:52:21.714Z,0
2016-12-08T00:57:22.644Z,0
2016-12-08T01:02:18.195Z,0
2016-12-08T01:07:14.833Z,0
2016-12-08T01:12:11.544Z,0
2016-12-08T01:17:08.119Z,0
2016-12-08T01:22:05.349Z,0
2016-12-08T01:27:02.172Z,0
2016-12-08T01:31:58.609Z,0
2016-12-08T01:36:56.339Z,0
2016-12-08T01:41:53.188Z,0
2016-12-08T01:46:50.133Z,0
2016-12-08T01:51:47.522Z,0
2016-12-08T01:56:43.972Z,0
2016-12-08T02:01:40.742Z,0
2016-12-08T02:06:37.407Z,0
2016-12-08T02:11:34.340Z,0
2016-12-08T02:16:31.405Z,0
2016-12-08T02:21:28.983Z,0
2016-12-08T02:26:25.739Z,0
2016-12-08T02:31:23.008Z,0
2016-12-08T02:36:19.956Z,0
2016-12-08T02:41:16.929Z,0
2016-12-08T02:46:13.547Z,0
2016-12-08T02:51:10.339Z,0
2016-12-08T02:56:07.608Z,0
2016-12-08T03:01:04.465Z,0
2016-12-08T03:06:02.032Z,0
2016-12-08T03:10:59.203Z,0
2016-12-08T03:15:55.794Z,0
2016-12-08T03:20:52.203Z,0
2016-12-08T03:25:49.372Z,0
2016-12-08T03:30:46.491Z,0
2016-12-08T03:35:42.945Z,0
2016-12-08T03:40:39.538Z,0
2016-12-08T03:45:36.359Z,0
2016-12-08T03:50:32.706Z,0
2016-12-08T03:55:29.616Z,0
2016-12-08T04:00:26.089Z,0
2016-12-08T04:05:22.373Z,0
2016-12-08T04:10:19.237Z,0
2016-12-08T04:15:16.975Z,0
2016-12-08T04:20:13.575Z,0
2016-12-08T04:25:10.287Z,0
2016-12-08T04:30:06.895Z,0
2016-12-08T04:35:04.650Z,0
2016-12-08T04:40:01.365Z,0
2016-12-08T04:44:58.240Z,0
2016-12-08T04:49:55.005Z,0
2016-12-08T04:54:51.610Z,0
2016-12-08T04:59:48.472Z,0
2016-12-08T05:04:44.864Z,0
2016-12-08T05:09:41.781Z,0
2016-12-08T05:14:38.388Z,0
2016-12-08T05:19:35.239Z,0
2016-12-08T05:24:31.487Z,0
2016-12-08T05:29:28.076Z,0
2016-12-08T05:34:25.004Z,0
2016-12-08T05:39:21.694Z,0
2016-12-08T05:44:18.315Z,0
2016-12-08T05:49:15.386Z,0
2016-12-08T05:54:12.581Z,0
2016-12-08T05:59:10.028Z,0
2016-12-08T06:04:06.708Z,0
2016-12-08T06:09:04.806Z,0
2016-12-08T06:14:01.309Z,0
2016-12-08T06:19:03.289Z,0
2016-12-08T06:34:03.256Z,0
2016-12-08T06:44:06.220Z,0
2016-12-08T06:49:03.550Z,0
2016-12-08T06:54:00.029Z,0
2016-12-08T06:58:58.096Z,0
2016-12-08T07:03:56.038Z,0
2016-12-08T07:08:52.902Z,0
2016-12-08T07:13:49.977Z,0
2016-12-08T07:18:46.992Z,0
2016-12-08T07:23:43.402Z,0
2016-12-08T07:28:39.957Z,5
2016-12-08T07:38:36.534Z,10
2016-12-08T07:43:33.195Z,15
2016-12-08T07:48:29.755Z,20
2016-12-08T07:53:26.027Z,30
2016-12-08T07:58:22.821Z,35
2016-12-08T08:03:19.577Z,40
2016-12-08T08:08:16.057Z,45
2016-12-08T08:13:13.393Z,45
2016-12-08T08:18:09.924Z,45
2016-12-08T08:23:06.588Z,50
2016-12-08T08:28:04.687Z,60
2016-12-08T08:33:01.443Z,75
2016-12-08T08:37:58.406Z,80
2016-12-08T08:42:56.155Z,75
2016-12-08T08:47:52.764Z,70
2016-12-08T08:52:49.540Z,70
2016-12-08T08:57:46.407Z,65
2016-12-08T09:02:43.461Z,75
2016-12-08T09:07:41.457Z,95
2016-12-08T09:12:40.567Z,110
2016-12-08T09:22:39.095Z,95
2016-12-08T09:27:35.329Z,90
2016-12-08T09:32:34.235Z,75
2016-12-08T09:37:31.063Z,80
2016-12-08T09:42:28.260Z,80
2016-12-08T09:47:24.907Z,80
2016-12-08T09:52:21.477Z,80
2016-12-08T09:57:18.302Z,95
2016-12-08T10:02:14.699Z,115
2016-12-08T10:07:11.362Z,125
2016-12-08T10:12:08.083Z,125
2016-12-08T10:17:04.636Z,125
2016-12-08T10:22:01.588Z,125
2016-12-08T10:26:58.716Z,120
2016-12-08T10:31:55.422Z,120
2016-12-08T10:36:52.336Z,120
2016-12-08T10:41:49.450Z,115
2016-12-08T10:46:45.933Z,105
2016-12-08T10:51:42.541Z,100
2016-12-08T10:56:39.087Z,100
2016-12-08T11:01:36.007Z,105
2016-12-08T11:06:33.546Z,120
2016-12-08T11:11:31.533Z,120
2016-12-08T11:16:28.567Z,120
2016-12-08T11:21:25.943Z,130
2016-12-08T11:26:22.731Z,125
2016-12-08T11:31:19.722Z,115
2016-12-08T11:36:16.528Z,115
2016-12-08T11:41:13.261Z,120
2016-12-08T11:46:09.990Z,135
2016-12-08T11:51:06.956Z,140
2016-12-08T11:56:03.536Z,140
2016-12-08T12:01:00.209Z,135
2016-12-08T12:05:57.793Z,130
2016-12-08T12:10:54.644Z,125
2016-12-08T12:15:51.093Z,120
2016-12-08T12:20:49.058Z,110
2016-12-08T12:25:45.918Z,105
2016-12-08T12:30:42.668Z,100
2016-12-08T12:35:42.609Z,100
2016-12-08T12:40:39.543Z,100
2016-12-08T12:45:35.802Z,95
2016-12-08T12:50:32.462Z,100
2016-12-08T12:55:29.127Z,105
2016-12-08T13:00:25.748Z,110
2016-12-08T13:05:22.215Z,105
2016-12-08T13:10:18.551Z,100
2016-12-08T13:15:15.800Z,95
2016-12-08T13:20:12.103Z,85
2016-12-08T13:25:09.239Z,85
2016-12-08T13:30:05.658Z,80
2016-12-08T13:35:02.224Z,75
2016-12-08T13:39:59.146Z,75
2016-12-08T13:44:55.597Z,70
2016-12-08T13:49:52.183Z,65
2016-12-08T13:54:49.095Z,60
2016-12-08T13:59:46.411Z,55
2016-12-08T14:04:43.127Z,45
2016-12-08T14:09:39.547Z,35
2016-12-08T14:14:35.706Z,25
2016-12-08T14:19:33.593Z,25
2016-12-08T14:24:29.767Z,15
2016-12-08T14:29:26.917Z,15
2016-12-08T14:34:23.620Z,10
2016-12-08T14:39:20.023Z,10
2016-12-08T14:44:16.681Z,15
2016-12-08T14:49:13.266Z,15
2016-12-08T14:54:09.781Z,10
2016-12-08T14:59:06.200Z,10
2016-12-08T15:04:03.864Z,5
2016-12-08T15:09:00.523Z,5
2016-12-08T15:13:57.122Z,5
2016-12-08T15:18:53.385Z,0
2016-12-08T15:23:50.611Z,0
2016-12-08T15:28:47.286Z,0
2016-12-08T15:33:45.019Z,0
2016-12-08T15:38:41.200Z,0
2016-12-08T15:43:37.847Z,0
2016-12-08T15:48:34.576Z,0
2016-12-08T15:53:31.126Z,0
2016-12-08T15:58:28.987Z,0
2016-12-08T16:03:25.504Z,0
2016-12-08T16:08:22.200Z,0
2016-12-08T16:13:18.632Z,0
2016-12-08T16:18:15.673Z,0
2016-12-08T16:23:13.579Z,0
2016-12-08T16:28:09.749Z,0
2016-12-08T16:33:06.940Z,0
2016-12-08T16:38:03.621Z,0
2016-12-08T16:43:00.438Z,0
2016-12-08T16:47:56.998Z,0
2016-12-08T16:52:52.885Z,0
2016-12-08T16:57:49.659Z,0
2016-12-08T17:02:46.190Z,0
2016-12-08T17:07:42.619Z,0
2016-12-08T17:12:39.065Z,0
2016-12-08T17:17:35.618Z,0
2016-12-08T17:22:32.271Z,0
2016-12-08T17:27:28.604Z,0
2016-12-08T17:32:25.821Z,0
2016-12-08T17:37:22.280Z,0
2016-12-08T17:42:18.918Z,0
2016-12-08T17:47:15.355Z,0
2016-12-08T17:52:11.891Z,0
2016-12-08T17:57:08.711Z,0
2016-12-08T18:02:05.068Z,0
2016-12-08T18:07:01.295Z,0
2016-12-08T18:11:57.476Z,0
2016-12-08T18:16:54.274Z,0
2016-12-08T18:21:50.962Z,0
2016-12-08T18:26:47.513Z,0
2016-12-08T18:31:44.092Z,0
2016-12-08T18:36:40.772Z,0
2016-12-08T18:41:37.640Z,0
2016-12-08T18:46:34.346Z,0
2016-12-08T18:51:30.685Z,0
2016-12-08T18:56:27.119Z,0
2016-12-08T19:01:23.660Z,0
2016-12-08T19:06:20.269Z,0
2016-12-08T19:11:16.648Z,0
2016-12-08T19:16:13.367Z,0
2016-12-08T19:21:09.776Z,0
2016-12-08T19:26:06.204Z,0
2016-12-08T19:31:03.237Z,0
2016-12-08T19:35:59.711Z,0
2016-12-08T19:40:56.171Z,0
2016-12-08T19:45:53.291Z,0
2016-12-08T19:50:50.302Z,0
2016-12-08T19:55:49.188Z,0
2016-12-08T20:00:45.226Z,0
2016-12-08T20:05:43.405Z,0
2016-12-08T20:10:39.480Z,0
2016-12-08T20:15:38.154Z,0
2016-12-08T20:20:34.613Z,0
2016-12-08T20:25:35.037Z,0
2016-12-08T20:30:34.871Z,0
2016-12-08T20:35:31.607Z,0
2016-12-08T20:40:28.006Z,0
2016-12-08T20:45:26.673Z,0
2016-12-08T20:50:22.715Z,0
2016-12-08T20:55:19.533Z,0
2016-12-08T21:00:16.774Z,0
2016-12-08T21:05:14.092Z,0
2016-12-08T21:10:10.629Z,0
2016-12-08T21:15:07.215Z,0
2016-12-08T21:20:03.802Z,0
2016-12-08T21:25:00.395Z,0
2016-12-08T21:29:56.702Z,0
2016-12-08T21:34:54.269Z,0
2016-12-08T21:39:50.311Z,0
2016-12-08T21:44:46.613Z,0
2016-12-08T21:49:43.501Z,0
2016-12-08T21:54:39.854Z,0
2016-12-08T21:59:36.798Z,0
2016-12-08T22:04:33.194Z,0
2016-12-08T22:09:30.294Z,0
2016-12-08T22:14:26.975Z,0
2016-12-08T22:19:23.320Z,0
2016-12-08T22:24:21.143Z,0
2016-12-08T22:29:20.278Z,0
2016-12-08T22:34:16.208Z,0
2016-12-08T22:39:12.968Z,0
2016-12-08T22:44:10.163Z,0
2016-12-08T22:49:06.509Z,0
2016-12-08T22:54:02.992Z,0
2016-12-08T22:58:59.798Z,0
2016-12-08T23:03:56.463Z,0
2016-12-08T23:08:52.861Z,0
2016-12-08T23:13:49.322Z,0
2016-12-08T23:18:45.823Z,0
2016-12-08T23:23:42.405Z,0
2016-12-08T23:28:38.585Z,0
2016-12-08T23:33:37.776Z,0
2016-12-08T23:38:33.867Z,0
2016-12-08T23:43:30.300Z,0
2016-12-08T23:48:26.760Z,0
2016-12-08T23:53:24.293Z,0
2016-12-08T23:58:20.688Z,0
